GW7623 Weather Reports


time (UTC)temp
C
wind
direction
speed
KPH
gust
KPH
rain 1hr
cm
rain 24hr
cm
rain mn
cm
humidity
%
barometer
mb
20260906085612 31 85 3.2 6.4 0.00 0.00 0.00 55 1022.5
20260906084632 30 54 1.6 9.7 0.00 0.00 0.00 60 1022.4
20260906083612 30 70 1.6 6.4 0.00 0.00 0.00 57 1022.4
20260906082613 30 68 3.2 9.7 0.00 0.00 0.00 63 1022.3
20260906081611 29 357 1.6 6.4 0.00 0.00 0.00 63 1022.4
20260906080612 29 44 1.6 6.4 0.00 0.00 0.00 67 1022.2
20260906075611 28 53 1.6 9.7 0.00 0.00 0.00 74 1022.0
20260906074632 28 27 4.8 12.9 0.00 0.00 0.00 74 1022.0
20260906073612 28 65 4.8 17.7 0.00 0.00 0.00 75 1022.0
20260906072612 27 64 3.2 9.7 0.00 0.00 0.00 77 1021.8
20260906071611 27 35 3.2 9.7 0.00 0.00 0.00 78 1021.8
20260906070611 25 286 6.4 19.3 0.00 0.00 0.00 82 1021.8
20260906065611 25 8 3.2 9.7 0.00 0.00 0.00 83 1021.7
20260906064632 25 331 3.2 9.7 0.00 0.00 0.00 83 1021.6
20260906063612 25 288 3.2 9.7 0.00 0.00 0.00 83 1021.5
20260906062612 24 31 1.6 6.4 0.00 0.00 0.00 84 1021.5
20260906061612 23 283 3.2 12.9 0.00 0.00 0.00 86 1021.4
20260906060632 23 273 3.2 9.7 0.00 0.00 0.00 87 1021.3
20260906055611 23 340 1.6 9.7 0.00 0.00 0.00 88 1021.2
20260906054611 22 283 4.8 12.9 0.00 0.00 0.00 90 1021.1
20260906053611 22 287 3.2 9.7 0.00 0.00 0.00 90 1020.9
20260906052611 22 298 4.8 19.3 0.00 0.00 0.00 90 1020.9
20260906051611 22 245 4.8 12.9 0.00 0.00 0.00 91 1020.7
20260906050631 22 264 4.8 12.9 0.00 0.00 0.00 91 1020.7
20260906045611 22 263 4.8 12.9 0.00 0.00 0.00 92 1020.7
20260906044611 22 263 3.2 12.9 0.00 0.00 0.00 92 1020.6
20260906043611 22 283 4.8 17.7 0.00 0.00 0.00 93 1020.5
20260906042612 22 306 4.8 12.9 0.00 0.00 0.00 93 1020.5
20260906041611 23 347 3.2 9.7 0.00 0.00 0.00 94 1020.2
20260906040651 23 312 1.6 12.9 0.00 0.00 0.00 94 1020.2
20260906035612 23 331 1.6 9.7 0.00 0.00 0.00 94 1020.1
20260906034632 23 358 1.6 17.7 0.00 0.00 0.00 94 1020.0
20260906033612 23 63 3.2 12.9 0.00 0.00 0.00 94 1020.0
20260906032612 23 64 1.6 6.4 0.00 0.00 0.00 94 1019.9
20260906031611 23 52 3.2 9.7 0.00 0.00 0.00 94 1019.7
20260906030611 23 72 1.6 6.4 0.00 0.00 0.00 93 1019.8
20260906025632 23 326 1.6 6.4 0.00 0.00 0.00 94 1019.7
20260906024632 23 43 3.2 9.7 0.00 0.00 0.00 93 1019.8
20260906023611 23 57 3.2 9.7 0.00 0.00 0.00 93 1019.8
20260906022611 23 65 1.6 12.9 0.00 0.00 0.00 92 1019.8
20260906021612 23 359 3.2 17.7 0.00 0.00 0.00 92 1019.8
20260906020611 23 66 3.2 9.7 0.00 0.00 0.00 91 1019.6
20260906015611 23 74 1.6 9.7 0.00 0.00 0.00 91 1019.6
20260906014631 23 57 1.6 9.7 0.00 0.00 0.00 90 1019.5
20260906013612 23 290 1.6 6.4 0.00 0.00 0.00 89 1019.4
20260906012111 23 62 1.6 6.4 0.00 0.00 0.00 88 1019.3
20260906011111 23 61 1.6 6.4 0.00 0.00 0.00 88 1019.4
20260906010111 23 78 3.2 19.3 0.00 0.00 0.00 87 1019.3
20260906005112 23 84 1.6 9.7 0.00 0.00 0.00 86 1019.3
20260906004113 23 36 3.2 9.7 0.00 0.00 0.00 86 1019.2
20260906003112 23 318 1.6 9.7 0.00 0.00 0.00 84 1019.4
20260906002112 24 77 1.6 6.4 0.00 0.00 0.00 84 1019.2
20260906001112 24 282 3.2 12.9 0.00 0.00 0.00 83 1019.2
20260906000132 24 49 3.2 9.7 0.00 0.00 0.00 82 1019.1
20260905235111 25 320 1.6 6.4 0.00 0.00 0.00 82 1019.0
20260905234112 25 289 1.6 6.4 0.00 0.00 0.00 82 1019.1
20260905233111 25 304 3.2 6.4 0.00 0.00 0.00 81 1019.1
20260905232111 25 289 1.6 9.7 0.00 0.00 0.00 79 1019.0
20260905231112 26 0.0 0.0 0.00 0.00 0.00 78 1019.0
20260905230112 26 46 1.6 6.4 0.00 0.00 0.00 78 1018.9
20260905225152 25 42 1.6 6.4 0.00 0.00 0.00 78 1018.9
20260905224112 25 27 1.6 6.4 0.00 0.00 0.00 78 1018.9
20260905223112 25 43 1.6 3.2 0.00 0.00 0.00 79 1018.7
20260905222132 26 93 1.6 6.4 0.00 0.00 0.00 78 1018.7
20260905221112 26 35 1.6 3.2 0.00 0.00 0.00 78 1018.7
20260905220112 26 59 1.6 6.4 0.00 0.00 0.00 79 1018.6
20260905215132 25 25 1.6 6.4 0.00 0.00 0.00 79 1018.5
20260905214131 25 28 1.6 6.4 0.00 0.00 0.00 80 1018.6
20260905213132 25 64 1.6 6.4 0.00 0.00 0.00 80 1018.4
20260905212111 25 61 1.6 3.2 0.00 0.00 0.00 80 1018.4
20260905211112 25 36 3.2 6.4 0.00 0.00 0.00 80 1018.4
20260905210130 26 54 1.6 6.4 0.00 0.00 0.00 79 1018.3
20260905205111 26 52 1.6 6.4 0.00 0.00 0.00 79 1018.2
20260905204111 26 35 1.6 6.4 0.00 0.00 0.00 79 1018.3
20260905203111 26 20 1.6 6.4 0.00 0.00 0.00 79 1018.2
20260905202112 26 49 1.6 6.4 0.00 0.00 0.00 79 1018.3
20260905201152 26 24 1.6 6.4 0.00 0.00 0.00 79 1018.2
20260905200112 26 35 1.6 6.4 0.00 0.00 0.00 79 1018.1
20260905195131 26 61 1.6 6.4 0.00 0.00 0.00 79 1018.1
20260905194111 26 22 1.6 6.4 0.00 0.00 0.00 79 1018.1
20260905193112 26 54 3.2 6.4 0.00 0.00 0.00 78 1018.1
20260905192112 26 77 1.6 6.4 0.00 0.00 0.00 78 1017.8
20260905191112 26 27 3.2 9.7 0.00 0.00 0.00 78 1017.7
20260905190111 27 65 3.2 9.7 0.00 0.00 0.00 76 1017.7
20260905185111 27 36 1.6 9.7 0.00 0.00 0.00 75 1017.5
20260905184111 27 24 1.6 6.4 0.00 0.00 0.00 74 1017.4
20260905183152 27 345 1.6 9.7 0.00 0.00 0.00 74 1017.3
20260905182111 28 93 4.8 12.9 0.00 0.00 0.00 71 1017.1
20260905181111 28 8 3.2 12.9 0.00 0.00 0.00 69 1017.0
20260905180111 28 40 3.2 6.4 0.00 0.00 0.00 68 1017.0
20260905175111 28 310 4.8 19.3 0.00 0.00 0.00 68 1016.8
20260905174111 29 56 3.2 9.7 0.00 0.00 0.00 67 1016.7
20260905173131 30 299 3.2 12.9 0.00 0.00 0.00 67 1016.5
20260905172131 30 60 3.2 12.9 0.00 0.00 0.00 64 1016.5
20260905171111 31 85 3.2 9.7 0.00 0.00 0.00 61 1016.4
20260905170111 31 53 4.8 9.7 0.00 0.00 0.00 60 1016.3
20260905165151 32 66 4.8 9.7 0.00 0.00 0.00 53 1016.2
20260905164111 33 34 0.0 3.2 0.00 0.00 0.00 38 1016.0
20260905163111 33 320 1.6 6.4 0.00 0.00 0.00 38 1015.9
20260905162111 33 285 1.6 6.4 0.00 0.00 0.00 38 1015.8
20260905161131 34 232 3.2 9.7 0.00 0.00 0.00 38 1015.8
20260905160131 34 336 1.6 6.4 0.00 0.00 0.00 38 1015.8
20260905155111 34 29 1.6 6.4 0.00 0.00 0.00 38 1015.7
20260905154111 34 228 4.8 12.9 0.00 0.00 0.00 38 1015.7
20260905153131 33 279 3.2 9.7 0.00 0.00 0.00 38 1015.6
20260905152211 33 258 4.8 17.7 0.00 0.00 0.00 38 1015.6
20260905151132 33 272 4.8 17.7 0.00 0.00 0.00 38 1015.7
20260905150131 34 264 8.0 30.6 0.00 0.00 0.00 38 1015.7
20260905145112 34 272 6.4 19.3 0.00 0.00 0.00 38 1015.7
20260905144112 33 268 6.4 25.7 0.00 0.00 0.00 38 1015.7
20260905143112 33 282 6.4 12.9 0.00 0.00 0.00 38 1015.8
20260905142112 33 285 6.4 19.3 0.00 0.00 0.00 39 1015.8
20260905141111 33 270 3.2 12.9 0.00 0.00 0.00 39 1015.8
20260905140111 33 270 9.7 30.6 0.00 0.00 0.00 40 1016.0
20260905135111 33 288 3.2 12.9 0.00 0.00 0.00 39 1016.0
20260905134131 33 280 4.8 17.7 0.00 0.00 0.00 40 1016.1
20260905133111 33 269 11.3 25.7 0.00 0.00 0.00 40 1016.3
20260905132111 33 268 8.0 22.5 0.00 0.00 0.00 40 1016.3
20260905131111 33 253 11.3 30.6 0.00 0.00 0.00 39 1016.4
20260905130131 33 263 8.0 25.7 0.00 0.00 0.00 40 1016.5
20260905125111 33 252 8.0 22.5 0.00 0.00 0.00 39 1016.5
20260905124112 32 266 9.7 22.5 0.00 0.00 0.00 40 1016.6
20260905123112 32 276 8.0 17.7 0.00 0.00 0.00 40 1016.7
20260905122112 32 257 12.9 40.2 0.00 0.00 0.00 40 1016.8
20260905121111 32 269 8.0 22.5 0.00 0.00 0.00 38 1017.1
20260905120112 32 258 9.7 25.7 0.00 0.00 0.00 37 1017.2
20260905115111 32 268 9.7 22.5 0.00 0.00 0.00 38 1017.2
20260905114111 32 258 14.5 30.6 0.00 0.00 0.00 37 1017.1
20260905113111 32 265 11.3 25.7 0.00 0.00 0.00 36 1017.2
20260905112111 32 271 8.0 30.6 0.00 0.00 0.00 37 1017.2
20260905111111 32 249 9.7 22.5 0.00 0.00 0.00 38 1017.1
20260905110151 32 271 8.0 22.5 0.00 0.00 0.00 39 1017.1
20260905105111 32 289 11.3 30.6 0.00 0.00 0.00 40 1017.2
20260905104131 32 263 8.0 22.5 0.00 0.00 0.00 40 1017.3
20260905103111 31 271 11.3 25.7 0.00 0.00 0.00 41 1017.2
20260905102112 31 266 11.3 30.6 0.00 0.00 0.00 41 1017.2
20260905101111 31 266 12.9 35.4 0.00 0.00 0.00 44 1017.5
20260905100112 31 275 12.9 33.8 0.00 0.00 0.00 44 1017.4
20260905095112 30 254 12.9 40.2 0.00 0.00 0.00 45 1017.4
20260905094112 30 289 6.4 17.7 0.00 0.00 0.00 46 1017.4
20260905093111 30 258 6.4 19.3 0.00 0.00 0.00 47 1017.4
20260905092112 30 274 9.7 33.8 0.00 0.00 0.00 47 1017.6
20260905091152 29 264 9.7 30.6 0.00 0.00 0.00 50 1017.5